createdAt,value
2023-02-17T00:00:02.321Z,0
2023-02-17T00:15:02.760Z,0
2023-02-17T00:30:03.293Z,0
2023-02-17T00:45:02.635Z,0
2023-02-17T01:00:03.126Z,0
2023-02-17T01:15:02.530Z,0
2023-02-17T01:30:03.157Z,0
2023-02-17T01:45:02.387Z,0
2023-02-17T02:00:02.868Z,0
2023-02-17T02:15:02.291Z,0
2023-02-17T02:30:02.827Z,0
2023-02-17T02:45:02.200Z,0
2023-02-17T03:00:02.617Z,0
2023-02-17T03:15:03.161Z,0
2023-02-17T03:30:02.545Z,0
2023-02-17T03:45:03.148Z,0
2023-02-17T04:00:02.372Z,0
2023-02-17T04:15:02.811Z,0
2023-02-17T04:30:02.337Z,0
2023-02-17T04:45:02.664Z,0
2023-02-17T05:00:03.194Z,0
2023-02-17T05:15:02.563Z,0
2023-02-17T05:30:03.268Z,0
2023-02-17T05:45:02.429Z,0
2023-02-17T06:00:02.884Z,0
2023-02-17T06:15:02.319Z,0
2023-02-17T06:30:02.835Z,0
2023-02-17T06:45:02.202Z,0
2023-02-17T07:00:02.675Z,0
2023-02-17T07:15:03.206Z,0
2023-02-17T07:30:02.509Z,2
2023-02-17T07:45:02.926Z,4
2023-02-17T08:00:02.375Z,6
2023-02-17T08:15:02.797Z,9
2023-02-17T08:30:02.361Z,13
2023-02-17T08:45:02.670Z,14
2023-02-17T09:00:05.478Z,15
2023-02-17T09:15:03.639Z,13
2023-02-17T09:30:03.302Z,16
2023-02-17T09:45:02.455Z,29
2023-02-17T10:00:02.875Z,32
2023-02-17T10:15:02.380Z,41
2023-02-17T10:30:02.900Z,85
2023-02-17T10:45:02.277Z,93
2023-02-17T11:00:02.618Z,77
2023-02-17T11:15:03.262Z,72
2023-02-17T11:30:02.564Z,71
2023-02-17T11:45:03.013Z,27
2023-02-17T12:00:02.399Z,32
2023-02-17T12:15:02.845Z,25
2023-02-17T12:30:02.369Z,19
2023-02-17T12:45:02.760Z,19
2023-02-17T13:00:03.276Z,19
2023-02-17T13:15:02.621Z,33
2023-02-17T13:30:03.307Z,39
2023-02-17T13:45:02.523Z,30
2023-02-17T14:00:02.928Z,33
2023-02-17T14:15:02.382Z,32
2023-02-17T14:30:05.393Z,24
2023-02-17T14:45:03.297Z,10
2023-02-17T15:00:02.738Z,14
2023-02-17T15:15:03.288Z,8
2023-02-17T15:30:02.624Z,3
2023-02-17T15:45:03.285Z,1
2023-02-17T16:00:02.466Z,3
2023-02-17T16:15:02.915Z,5
2023-02-17T16:30:02.405Z,0
2023-02-17T16:45:02.781Z,0
2023-02-17T17:00:03.352Z,0
2023-02-17T17:15:02.670Z,0
2023-02-17T17:30:03.465Z,0
2023-02-17T18:00:02.948Z,0
2023-02-17T18:15:02.386Z,0
2023-02-17T18:30:02.945Z,0
2023-02-17T18:45:02.327Z,0
2023-02-17T19:00:02.743Z,0
2023-02-17T19:15:03.340Z,0
2023-02-17T19:30:02.633Z,0
2023-02-17T19:45:03.034Z,0
2023-02-17T20:00:02.448Z,0
2023-02-17T20:15:02.897Z,0
2023-02-17T20:30:02.661Z,0
2023-02-17T21:00:02.384Z,0
2023-02-17T21:15:02.667Z,0
2023-02-17T21:30:03.224Z,0
2023-02-17T21:45:02.536Z,0
2023-02-17T22:00:02.978Z,0
2023-02-17T22:15:02.430Z,0
2023-02-17T22:30:02.884Z,0
2023-02-17T22:45:02.364Z,0
2023-02-17T23:00:02.824Z,0
2023-02-17T23:15:03.393Z,0
2023-02-17T23:30:02.622Z,0
2023-02-17T23:45:03.041Z,0
